Time;durP1;ratioP1;P1;durP2;ratioP2;P2;SDS_P1;SDS_P2;PMS_P1;PMS_P2;Temp;Humidity;BMP_temperature;BMP_pressure;BME280_temperature;BME280_humidity;BME280_pressure;Samples;Min_cycle;Max_cycle;Signal;HPM_P1;HPM_P2
2021/03/23 00:01:50;;;;;;;1.33;1.13;;;;;;;25.05;28.35;97316.47;5055613;28;20117;-27
2021/03/23 00:04:15;;;;;;;3.13;1.40;;;;;;;25.04;28.42;97309.53;5058374;28;20039;-27
2021/03/23 00:06:41;;;;;;;1.05;0.90;;;;;;;25.05;28.50;97318.22;5060560;28;20667;-26
2021/03/23 00:09:06;;;;;;;2.03;1.10;;;;;;;25.05;28.65;97315.59;5060317;28;20048;-26
2021/03/23 00:11:37;;;;;;;2.15;1.30;;;;;;;25.05;28.54;97315.59;5058385;28;20050;-27
2021/03/23 00:14:06;;;;;;;1.85;0.98;;;;;;;25.04;28.37;97320.00;5053158;28;20020;-27
2021/03/23 00:16:36;;;;;;;1.83;1.20;;;;;;;25.04;28.33;97322.63;5051894;28;20535;-27
2021/03/23 00:19:02;;;;;;;1.25;1.05;;;;;;;25.04;28.43;97317.38;5048585;28;20051;-26
2021/03/23 00:21:27;;;;;;;2.90;1.00;;;;;;;25.04;28.38;97314.75;5051387;28;20029;-26
2021/03/23 00:23:53;;;;;;;4.05;1.02;;;;;;;25.05;28.56;97318.22;5057391;28;20029;-28
2021/03/23 00:26:19;;;;;;;2.45;1.02;;;;;;;25.03;28.60;97323.56;5055577;28;20243;-28
2021/03/23 00:28:49;;;;;;;3.45;1.00;;;;;;;25.04;28.48;97317.38;5056589;28;20781;-26
2021/03/23 00:31:15;;;;;;;1.60;1.13;;;;;;;25.03;28.40;97315.69;5058658;28;20029;-31
2021/03/23 00:33:41;;;;;;;2.15;1.13;;;;;;;25.03;28.40;97313.06;5057828;28;20028;-28
2021/03/23 00:36:07;;;;;;;1.20;0.90;;;;;;;25.03;28.42;97318.31;5058811;28;20040;-27
2021/03/23 00:38:33;;;;;;;1.17;0.88;;;;;;;25.04;28.54;97317.38;5052474;28;20480;-29
2021/03/23 00:40:59;;;;;;;2.25;1.15;;;;;;;25.04;28.53;97317.38;5077939;28;20024;-29
2021/03/23 00:43:24;;;;;;;1.50;0.95;;;;;;;25.03;28.38;97309.59;5054503;28;20037;-29
2021/03/23 00:45:50;;;;;;;1.27;1.17;;;;;;;25.03;28.45;97313.06;5039367;28;20089;-27
2021/03/23 00:48:15;;;;;;;1.05;0.88;;;;;;;25.03;28.47;97309.59;5059854;28;20039;-28
2021/03/23 00:50:41;;;;;;;1.83;1.00;;;;;;;25.03;28.44;97312.19;5054701;28;20126;-26
2021/03/23 00:53:07;;;;;;;1.08;0.90;;;;;;;25.03;28.42;97313.06;5052714;28;20512;-26
2021/03/23 00:55:32;;;;;;;2.15;1.08;;;;;;;25.03;28.63;97317.44;5058202;28;20025;-27
2021/03/23 00:57:57;;;;;;;1.73;1.15;;;;;;;25.02;28.42;97306.09;5058503;28;20305;-29
2021/03/23 01:00:23;;;;;;;2.65;1.00;;;;;;;25.03;28.51;97307.81;5055126;28;20032;-29
2021/03/23 01:02:49;;;;;;;1.02;0.80;;;;;;;25.02;28.56;97311.34;5055748;28;20035;-27
2021/03/23 01:05:16;;;;;;;2.17;1.27;;;;;;;25.02;28.42;97305.25;5056635;28;20036;-27
2021/03/23 01:07:44;;;;;;;1.13;0.82;;;;;;;25.03;28.59;97313.06;5061836;28;20115;-28
2021/03/23 01:10:10;;;;;;;1.77;0.98;;;;;;;25.03;28.38;97314.81;5053232;28;20090;-29
2021/03/23 01:12:35;;;;;;;2.22;1.05;;;;;;;25.03;28.40;97312.19;5059320;28;20086;-27
2021/03/23 01:15:01;;;;;;;0.98;0.80;;;;;;;25.02;28.66;97308.72;5058575;28;20028;-27
2021/03/23 01:17:26;;;;;;;3.55;0.90;;;;;;;25.02;28.59;97306.09;5053817;28;20029;-27
2021/03/23 01:19:52;;;;;;;1.67;1.08;;;;;;;25.02;28.50;97315.75;5049071;28;20043;-26
2021/03/23 01:22:17;;;;;;;1.90;0.98;;;;;;;25.01;28.42;97301.78;5056710;28;20016;-26
2021/03/23 01:24:42;;;;;;;3.28;1.05;;;;;;;25.02;28.65;97303.47;5057445;28;20038;-27
2021/03/23 01:27:08;;;;;;;0.98;0.77;;;;;;;25.01;28.73;97309.63;5057708;28;20025;-26
2021/03/23 01:29:33;;;;;;;1.48;0.85;;;;;;;25.02;28.55;97311.34;5058397;28;20037;-29
2021/03/23 01:31:59;;;;;;;1.60;0.82;;;;;;;25.02;28.44;97308.72;5054597;28;20078;-27
2021/03/23 01:34:24;;;;;;;1.65;0.90;;;;;;;25.02;28.57;97311.34;5058612;28;20068;-28
2021/03/23 01:36:49;;;;;;;2.45;0.95;;;;;;;25.01;28.69;97309.63;5058953;28;20528;-27
2021/03/23 01:39:15;;;;;;;1.00;0.77;;;;;;;25.03;28.65;97306.97;5054955;28;20039;-27
2021/03/23 01:41:40;;;;;;;1.77;1.00;;;;;;;25.02;28.70;97307.88;5059244;28;20028;-26
2021/03/23 01:44:06;;;;;;;2.55;0.80;;;;;;;25.02;28.76;97310.50;5056949;28;20032;-27
2021/03/23 01:46:41;;;;;;;1.67;0.98;;;;;;;25.01;28.63;97314.88;5049899;28;20467;-28
2021/03/23 01:49:20;;;;;;;0.82;0.70;;;;;;;25.02;28.64;97313.97;5058448;28;20032;-27
2021/03/23 01:51:56;;;;;;;1.08;0.90;;;;;;;25.01;28.59;97314.88;5049857;28;20115;-27
2021/03/23 01:54:33;;;;;;;1.85;1.00;;;;;;;25.02;28.67;97310.50;5053405;28;20048;-26
2021/03/23 01:57:00;;;;;;;1.42;0.90;;;;;;;25.01;28.70;97308.78;5057181;28;20087;-26
2021/03/23 01:59:26;;;;;;;0.77;0.77;;;;;;;25.00;28.71;97305.31;5059377;28;20029;-27
2021/03/23 02:01:52;;;;;;;1.80;0.90;;;;;;;25.00;28.60;97302.69;5036866;28;20099;-27
2021/03/23 02:04:17;;;;;;;0.90;0.80;;;;;;;25.01;28.53;97312.25;5038705;28;20181;-26
2021/03/23 02:06:45;;;;;;;1.38;0.73;;;;;;;25.00;28.62;97302.69;5047594;28;20429;-28
2021/03/23 02:09:29;;;;;;;1.05;0.90;;;;;;;25.01;28.77;97307.03;5054737;28;20650;-26
2021/03/23 02:11:56;;;;;;;0.82;0.70;;;;;;;25.00;28.62;97302.69;5053635;28;20436;-29
2021/03/23 02:14:25;;;;;;;2.28;0.88;;;;;;;25.01;28.73;97298.28;5053029;28;20682;-26
2021/03/23 02:16:50;;;;;;;0.60;0.50;;;;;;;24.99;28.68;97295.75;5040083;28;20051;-27
2021/03/23 02:19:17;;;;;;;1.05;0.80;;;;;;;25.00;28.66;97307.94;5054138;28;20032;-27
2021/03/23 02:21:43;;;;;;;0.98;0.80;;;;;;;24.99;28.46;97300.13;5051808;28;20528;-29
2021/03/23 02:24:10;;;;;;;1.75;0.90;;;;;;;24.99;28.59;97300.13;5047866;28;20041;-29
2021/03/23 02:26:36;;;;;;;2.33;1.08;;;;;;;24.98;28.57;97301.06;5029146;28;20021;-27
2021/03/23 02:29:11;;;;;;;1.40;0.90;;;;;;;24.99;28.36;97303.63;5050329;28;20024;-27
2021/03/23 02:31:44;;;;;;;1.70;1.10;;;;;;;24.98;28.67;97304.50;5057306;28;20377;-27
2021/03/23 02:34:11;;;;;;;1.75;1.20;;;;;;;24.98;28.44;97301.06;5054389;28;20413;-28
2021/03/23 02:36:38;;;;;;;1.17;0.88;;;;;;;24.97;28.58;97300.19;5049661;28;20037;-26
2021/03/23 02:39:04;;;;;;;1.20;0.82;;;;;;;24.97;28.69;97292.31;5063177;28;20047;-26
2021/03/23 02:41:30;;;;;;;1.40;0.85;;;;;;;24.98;28.41;97294.03;5046720;28;20036;-27
2021/03/23 02:43:55;;;;;;;1.45;0.98;;;;;;;24.97;28.46;97294.13;5045429;28;20035;-31
2021/03/23 02:46:21;;;;;;;1.33;1.10;;;;;;;24.97;28.63;97291.50;5048571;28;20021;-27
2021/03/23 02:48:46;;;;;;;2.08;1.25;;;;;;;24.98;28.51;97299.28;5052400;28;20108;-30
2021/03/23 02:51:13;;;;;;;2.28;1.27;;;;;;;24.98;28.47;97298.44;5059180;28;20086;-27
2021/03/23 02:53:39;;;;;;;2.72;1.10;;;;;;;24.98;28.58;97301.06;5051700;28;20037;-27
2021/03/23 02:56:05;;;;;;;1.25;0.95;;;;;;;24.97;28.69;97308.06;5052465;28;20554;-27
2021/03/23 02:58:30;;;;;;;1.98;1.10;;;;;;;24.97;28.59;97302.81;5051097;28;20032;-29
2021/03/23 03:00:55;;;;;;;1.05;0.80;;;;;;;24.98;28.53;97298.44;5052234;28;20032;-26
2021/03/23 03:03:21;;;;;;;1.27;0.85;;;;;;;24.97;28.35;97296.75;5055316;28;20059;-26
2021/03/23 03:05:46;;;;;;;1.75;0.88;;;;;;;24.96;28.61;97295.88;5057164;28;20016;-27
2021/03/23 03:08:12;;;;;;;1.25;0.88;;;;;;;24.97;28.65;97292.31;5054290;28;20029;-27
2021/03/23 03:10:37;;;;;;;1.63;0.98;;;;;;;24.97;28.52;97291.50;5057817;28;20048;-27
2021/03/23 03:13:03;;;;;;;0.93;0.80;;;;;;;24.97;28.67;97292.31;5059311;28;20033;-29
2021/03/23 03:15:29;;;;;;;0.98;0.88;;;;;;;24.96;28.75;97285.38;5058059;28;20088;-28
2021/03/23 03:17:54;;;;;;;2.17;0.90;;;;;;;24.97;28.49;97287.09;5063126;28;20067;-26
2021/03/23 03:20:20;;;;;;;1.05;0.80;;;;;;;24.97;28.69;97281.84;5049652;28;20090;-26
2021/03/23 03:22:45;;;;;;;1.25;1.00;;;;;;;24.96;28.63;97285.38;5060957;28;20082;-26
2021/03/23 03:25:11;;;;;;;1.50;0.90;;;;;;;24.96;28.52;97280.16;5053861;28;20024;-26
2021/03/23 03:27:36;;;;;;;1.25;1.13;;;;;;;24.97;28.58;97278.38;5053272;28;20416;-27
2021/03/23 03:30:06;;;;;;;6.63;2.90;;;;;;;24.97;28.34;97273.13;5054193;28;20037;-25
2021/03/23 03:32:31;;;;;;;2.47;1.80;;;;;;;24.95;28.47;97273.19;5055316;28;20042;-27
2021/03/23 03:34:56;;;;;;;1.65;1.08;;;;;;;24.95;28.63;97273.19;5054787;28;20491;-27
2021/03/23 03:37:22;;;;;;;1.65;1.00;;;;;;;24.95;28.50;97283.69;5057533;28;20027;-28
2021/03/23 03:39:47;;;;;;;1.30;1.08;;;;;;;24.95;28.51;97272.34;5060519;28;20175;-26
2021/03/23 03:42:13;;;;;;;1.17;0.95;;;;;;;24.95;28.50;97272.34;5056833;28;20025;-26
2021/03/23 03:44:38;;;;;;;3.65;1.48;;;;;;;24.94;28.71;97276.72;5059527;28;20495;-27
2021/03/23 03:47:04;;;;;;;1.45;0.90;;;;;;;24.94;28.61;97274.09;5059862;28;20062;-28
2021/03/23 03:49:29;;;;;;;1.50;1.05;;;;;;;24.94;28.35;97266.22;5060989;28;20086;-28
2021/03/23 03:51:55;;;;;;;2.70;0.90;;;;;;;24.93;28.53;97272.41;5060317;28;20664;-26
2021/03/23 03:54:20;;;;;;;0.88;0.85;;;;;;;24.94;28.72;97281.97;5056080;28;20028;-27
2021/03/23 03:56:45;;;;;;;1.15;0.88;;;;;;;24.95;28.42;97278.44;5063981;28;20051;-27
2021/03/23 03:59:11;;;;;;;2.28;1.23;;;;;;;24.94;28.61;97286.38;5062306;28;20021;-28
2021/03/23 04:01:36;;;;;;;2.10;0.98;;;;;;;24.92;28.52;97278.56;5060136;28;20032;-27
2021/03/23 04:04:02;;;;;;;1.00;0.68;;;;;;;24.93;28.43;97280.25;5056724;28;20488;-27
2021/03/23 04:06:27;;;;;;;1.52;0.88;;;;;;;24.93;28.55;97285.50;5052451;28;20051;-27
2021/03/23 04:08:53;;;;;;;1.33;0.70;;;;;;;24.92;28.59;97287.28;5056574;28;20025;-27
2021/03/23 04:11:18;;;;;;;1.30;0.90;;;;;;;24.93;28.65;97285.50;5057405;28;20028;-26
2021/03/23 04:13:43;;;;;;;1.17;0.68;;;;;;;24.92;28.59;97289.91;5062103;28;20032;-28
2021/03/23 04:16:10;;;;;;;1.75;0.90;;;;;;;24.92;28.65;97289.91;5060567;28;20562;-27
2021/03/23 04:18:35;;;;;;;1.13;0.63;;;;;;;24.93;28.63;97285.50;5054132;28;20040;-26
2021/03/23 04:21:02;;;;;;;3.72;1.00;;;;;;;24.92;28.42;97289.06;5052250;28;20028;-27
2021/03/23 04:23:28;;;;;;;1.23;0.80;;;;;;;24.92;28.53;97296.91;5055598;28;20028;-27
2021/03/23 04:25:54;;;;;;;2.00;1.30;;;;;;;24.92;28.66;97296.91;5059142;28;20054;-27
2021/03/23 04:28:19;;;;;;;0.90;0.50;;;;;;;24.92;28.58;97295.16;5049029;28;20032;-27
2021/03/23 04:30:46;;;;;;;1.20;0.90;;;;;;;24.92;28.54;97291.69;5056584;28;20051;-27
2021/03/23 04:33:11;;;;;;;1.33;0.88;;;;;;;24.92;28.36;97304.78;5055617;28;20028;-27
2021/03/23 04:35:56;;;;;;;1.80;0.90;;;;;;;24.91;28.64;97306.53;5053653;28;20086;-27
2021/03/23 04:38:26;;;;;;;0.88;0.80;;;;;;;24.91;28.48;97303.91;5054997;28;20029;-27
2021/03/23 04:40:52;;;;;;;1.55;0.85;;;;;;;24.92;28.44;97312.66;5053753;28;20068;-26
2021/03/23 04:43:20;;;;;;;2.45;0.80;;;;;;;24.91;28.40;97310.94;5057867;28;20028;-27
2021/03/23 04:45:46;;;;;;;1.00;0.82;;;;;;;24.91;28.53;97318.81;5050591;28;20028;-27
2021/03/23 04:48:11;;;;;;;1.90;1.00;;;;;;;24.91;28.37;97313.56;5063669;28;20381;-27
2021/03/23 04:50:37;;;;;;;3.00;0.90;;;;;;;24.91;28.37;97319.66;5056124;28;20107;-29
2021/03/23 04:53:02;;;;;;;1.20;0.60;;;;;;;24.91;28.67;97318.81;5057696;28;20720;-30
2021/03/23 04:55:27;;;;;;;1.48;0.82;;;;;;;24.91;28.54;97316.19;5052399;28;20036;-26
2021/03/23 04:57:53;;;;;;;1.45;0.80;;;;;;;24.91;28.33;97321.44;5047620;28;20037;-26
2021/03/23 05:00:18;;;;;;;0.98;0.70;;;;;;;24.92;28.58;97320.50;5055978;28;20308;-26
2021/03/23 05:02:44;;;;;;;1.98;0.93;;;;;;;24.91;28.56;97324.88;5054020;28;20036;-27
2021/03/23 05:05:10;;;;;;;1.60;1.08;;;;;;;24.91;28.44;97326.69;5060239;28;20555;-27
2021/03/23 05:07:35;;;;;;;2.28;1.10;;;;;;;24.90;28.35;97328.44;5056209;28;20039;-28
2021/03/23 05:10:01;;;;;;;1.30;1.05;;;;;;;24.90;28.51;97328.44;5053951;28;20033;-28
2021/03/23 05:12:26;;;;;;;1.08;0.90;;;;;;;24.91;28.52;97324.06;5060378;28;20612;-29
2021/03/23 05:14:51;;;;;;;1.55;1.05;;;;;;;24.91;28.47;97329.31;5058127;28;20515;-28
2021/03/23 05:17:17;;;;;;;1.27;0.90;;;;;;;24.90;28.68;97322.34;5053189;28;20029;-28
2021/03/23 05:19:42;;;;;;;1.95;1.10;;;;;;;24.90;28.57;97327.59;5050172;28;20110;-27
2021/03/23 05:22:08;;;;;;;1.50;0.90;;;;;;;24.89;28.47;97331.97;5056799;28;20043;-27
2021/03/23 05:24:33;;;;;;;2.05;1.23;;;;;;;24.90;28.33;97335.47;5045743;28;20059;-26
2021/03/23 05:26:59;;;;;;;1.45;0.75;;;;;;;24.90;28.44;97332.84;5042418;28;20017;-28
2021/03/23 05:29:24;;;;;;;1.35;0.70;;;;;;;24.90;28.63;97333.69;5050279;28;20044;-26
2021/03/23 05:31:49;;;;;;;1.77;1.33;;;;;;;24.89;28.63;97331.97;5050540;28;20540;-28
2021/03/23 05:34:15;;;;;;;1.38;0.77;;;;;;;24.90;28.43;97341.53;5055132;28;20028;-28
2021/03/23 05:36:44;;;;;;;1.17;0.75;;;;;;;24.90;28.52;97335.47;5055126;28;20021;-27
2021/03/23 05:39:11;;;;;;;1.35;0.82;;;;;;;24.89;28.52;97331.97;5061124;28;20036;-26
2021/03/23 05:42:13;;;;;;;1.88;1.10;;;;;;;24.90;28.65;97332.84;5059877;28;20074;-26
2021/03/23 05:44:46;;;;;;;1.40;0.93;;;;;;;24.89;28.54;97336.34;5056684;28;20039;-28
2021/03/23 05:47:15;;;;;;;0.57;0.57;;;;;;;24.89;28.61;97342.47;5051480;28;20045;-28
2021/03/23 05:49:51;;;;;;;1.75;1.00;;;;;;;24.88;28.32;97339.91;5059442;28;20021;-29
2021/03/23 05:52:26;;;;;;;0.80;0.80;;;;;;;24.88;28.62;97340.75;5043202;28;20048;-27
2021/03/23 05:54:57;;;;;;;1.35;0.80;;;;;;;24.88;28.45;97339.91;5056632;28;20396;-28
2021/03/23 05:57:33;;;;;;;0.98;0.70;;;;;;;24.88;28.56;97337.28;5061536;28;20025;-27
2021/03/23 06:00:05;;;;;;;1.50;0.95;;;;;;;24.88;28.47;97340.75;5052859;28;20044;-28
2021/03/23 06:02:44;;;;;;;1.08;0.93;;;;;;;24.89;28.52;97349.47;5052279;28;20028;-27
2021/03/23 06:05:32;;;;;;;1.45;1.00;;;;;;;24.89;28.73;97349.47;5058437;28;20043;-27
2021/03/23 06:08:02;;;;;;;1.30;0.80;;;;;;;24.89;28.47;97357.31;5045647;28;20028;-26
2021/03/23 06:10:27;;;;;;;0.75;0.70;;;;;;;24.89;28.52;97355.56;5058723;28;20012;-27
2021/03/23 06:13:15;;;;;;;1.25;0.63;;;;;;;24.89;28.61;97362.56;5056030;28;20032;-27
2021/03/23 06:15:58;;;;;;;1.13;0.63;;;;;;;24.89;28.56;97362.56;5041282;28;20111;-29
2021/03/23 06:18:31;;;;;;;0.93;0.80;;;;;;;24.89;28.64;97367.81;5058132;28;20075;-26
2021/03/23 06:21:05;;;;;;;1.42;1.05;;;;;;;24.90;28.56;97374.78;5060921;28;20504;-27
2021/03/23 06:23:42;;;;;;;0.73;0.70;;;;;;;24.90;28.46;97372.16;5035431;28;20055;-26
2021/03/23 06:26:27;;;;;;;1.73;0.82;;;;;;;24.90;28.74;97375.63;5059215;28;20544;-26
2021/03/23 06:28:56;;;;;;;1.00;0.90;;;;;;;24.91;28.69;97371.25;5041794;28;20032;-27
2021/03/23 06:31:27;;;;;;;1.08;0.68;;;;;;;24.91;28.73;97371.25;5053438;28;20039;-28
2021/03/23 06:33:53;;;;;;;1.02;0.82;;;;;;;24.91;28.71;97376.50;5058975;28;20051;-27
2021/03/23 06:36:26;;;;;;;0.73;0.73;;;;;;;24.91;28.54;97381.72;5056344;28;20043;-27
2021/03/23 06:38:51;;;;;;;1.35;0.80;;;;;;;24.92;28.73;97388.69;5049435;28;20037;-27
2021/03/23 06:41:30;;;;;;;0.85;0.80;;;;;;;24.92;28.80;97389.53;5045676;28;20039;-27
2021/03/23 06:44:12;;;;;;;1.80;0.93;;;;;;;24.92;28.61;97381.69;5052866;28;20017;-28
2021/03/23 06:46:40;;;;;;;1.13;0.80;;;;;;;24.93;28.64;97382.50;5061114;28;20017;-27
2021/03/23 06:49:15;;;;;;;1.27;0.90;;;;;;;24.93;28.52;97390.38;5074188;28;20047;-27
2021/03/23 06:51:59;;;;;;;0.70;0.70;;;;;;;24.93;28.51;97387.75;5059190;28;20112;-28
2021/03/23 06:54:27;;;;;;;1.27;0.95;;;;;;;24.94;28.70;97397.31;5061399;28;20075;-27
2021/03/23 06:57:12;;;;;;;0.82;0.80;;;;;;;24.94;28.66;97402.56;5052837;28;20066;-27
2021/03/23 07:00:06;;;;;;;1.08;0.70;;;;;;;24.94;28.46;97392.06;5050965;28;20016;-27
2021/03/23 07:02:42;;;;;;;1.40;0.90;;;;;;;24.94;28.52;97399.94;5061735;28;20036;-27
2021/03/23 07:05:33;;;;;;;1.13;0.88;;;;;;;24.94;28.69;97394.69;5054097;28;20028;-28
2021/03/23 07:07:58;;;;;;;0.88;0.77;;;;;;;24.96;28.51;97397.25;5046808;28;20443;-27
2021/03/23 07:10:29;;;;;;;1.55;0.82;;;;;;;24.96;28.55;97397.25;5056158;28;20028;-27
2021/03/23 07:12:55;;;;;;;0.80;0.80;;;;;;;24.96;28.58;97402.50;5054627;28;20035;-27
2021/03/23 07:15:29;;;;;;;1.33;0.80;;;;;;;24.96;28.64;97403.38;5055963;28;20427;-29
2021/03/23 07:18:06;;;;;;;1.50;0.93;;;;;;;24.97;28.65;97405.06;5061493;28;20032;-28
2021/03/23 07:20:37;;;;;;;1.33;0.98;;;;;;;24.98;28.73;97405.94;5052919;28;20091;-28
2021/03/23 07:23:29;;;;;;;3.65;1.00;;;;;;;24.97;28.56;97407.69;5056438;28;20662;-27
2021/03/23 07:25:55;;;;;;;1.10;0.90;;;;;;;24.98;28.45;97417.25;5052383;28;20016;-27
2021/03/23 07:28:35;;;;;;;1.42;0.90;;;;;;;24.98;28.49;97414.63;5034813;28;20028;-27
2021/03/23 07:31:03;;;;;;;1.30;1.00;;;;;;;25.00;28.53;97420.69;5049394;28;20106;-27
2021/03/23 07:33:34;;;;;;;2.05;0.90;;;;;;;24.99;28.75;97416.38;5056734;28;20043;-29
2021/03/23 07:36:00;;;;;;;0.98;0.88;;;;;;;24.99;28.58;97420.75;5052399;28;20040;-28
2021/03/23 07:38:52;;;;;;;1.65;1.00;;;;;;;25.00;28.74;97425.94;5056086;28;20037;-27
2021/03/23 07:41:28;;;;;;;3.92;1.10;;;;;;;25.00;28.66;97425.94;5022707;28;20140;-29
2021/03/23 07:44:24;;;;;;;1.10;0.82;;;;;;;25.01;28.59;97426.78;5057151;28;20438;-25
2021/03/23 07:46:53;;;;;;;11.43;3.55;;;;;;;25.01;28.56;97422.38;5051457;28;20036;-26
2021/03/23 07:49:34;;;;;;;8.68;3.42;;;;;;;25.00;28.62;97422.44;5047412;28;20111;-28
2021/03/23 07:52:17;;;;;;;7.32;2.17;;;;;;;24.98;28.56;97425.13;5046719;28;20098;-27
2021/03/23 07:54:42;;;;;;;9.30;1.10;;;;;;;24.97;28.80;97423.44;5058682;28;20020;-27
2021/03/23 07:57:20;;;;;;;1.80;1.10;;;;;;;24.97;28.91;97426.03;5063914;28;20039;-27
2021/03/23 08:00:15;;;;;;;5.63;1.35;;;;;;;24.98;28.78;97425.13;5059014;28;20067;-27
2021/03/23 08:02:41;;;;;;;7.03;4.32;;;;;;;24.97;28.40;97423.44;5050277;28;20210;-27
2021/03/23 08:05:19;;;;;;;4.85;2.33;;;;;;;24.98;28.61;97434.78;5053895;28;20423;-27
2021/03/23 08:08:15;;;;;;;3.28;1.92;;;;;;;24.98;28.62;97437.41;5039712;28;20021;-28
2021/03/23 08:11:14;;;;;;;5.30;1.38;;;;;;;24.97;28.57;97439.16;5052391;28;20028;-29
2021/03/23 08:13:45;;;;;;;3.33;1.67;;;;;;;24.99;28.74;97436.47;5053040;28;20540;-26
2021/03/23 08:16:23;;;;;;;4.03;1.20;;;;;;;25.00;28.81;97438.19;5051634;28;20127;-28
2021/03/23 08:19:01;;;;;;;4.47;1.50;;;;;;;25.00;28.66;97433.81;5051522;28;20377;-29
2021/03/23 08:21:26;;;;;;;3.90;1.77;;;;;;;25.02;28.84;97441.59;5049714;28;20399;-29
2021/03/23 08:24:13;;;;;;;3.72;2.13;;;;;;;25.01;28.85;97440.75;5049945;28;20617;-28
2021/03/23 08:27:04;;;;;;;4.43;2.28;;;;;;;25.03;28.93;97449.41;5055764;28;20633;-27
2021/03/23 08:30:02;;;;;;;1.80;1.40;;;;;;;25.03;28.82;97438.94;5053716;28;20029;-26
2021/03/23 08:32:50;;;;;;;4.03;1.42;;;;;;;25.04;28.65;97443.25;5053164;28;20119;-28
2021/03/23 08:35:28;;;;;;;3.13;1.38;;;;;;;25.05;28.71;97437.09;5052681;28;20098;-28
2021/03/23 08:38:19;;;;;;;4.00;1.85;;;;;;;25.05;28.78;97438.84;5035671;28;20025;-27
2021/03/23 08:40:54;;;;;;;3.17;1.83;;;;;;;25.07;28.76;97444.91;5054311;28;20020;-27
2021/03/23 08:43:39;;;;;;;2.20;1.40;;;;;;;25.07;28.80;97438.78;5055507;28;20028;-28
2021/03/23 08:46:18;;;;;;;3.13;1.60;;;;;;;25.07;28.82;97444.03;5056224;28;20056;-26
2021/03/23 08:48:53;;;;;;;4.07;1.73;;;;;;;25.11;29.12;97450.88;5052737;28;20377;-28
2021/03/23 08:51:21;;;;;;;4.07;1.40;;;;;;;25.09;28.85;97447.47;5049613;28;20025;-28
2021/03/23 08:53:49;;;;;;;2.85;1.55;;;;;;;25.10;28.83;97452.66;5031420;28;20115;-27
2021/03/23 08:56:14;;;;;;;4.18;1.70;;;;;;;25.11;28.77;97450.88;5050346;28;20520;-28
2021/03/23 08:58:47;;;;;;;2.42;1.55;;;;;;;25.12;29.00;97449.94;5069965;28;20081;-29
2021/03/23 09:01:25;;;;;;;2.45;1.30;;;;;;;25.14;28.96;97453.38;5054980;28;20377;-29
2021/03/23 09:03:51;;;;;;;3.97;1.52;;;;;;;25.14;29.03;97458.63;5073118;28;20025;-27
2021/03/23 09:06:18;;;;;;;5.75;2.40;;;;;;;25.15;28.93;97458.56;5056095;28;20484;-27
2021/03/23 09:08:50;;;;;;;8.95;2.80;;;;;;;25.15;29.10;97457.69;5056758;28;20036;-26
2021/03/23 09:11:17;;;;;;;14.15;4.05;;;;;;;25.17;28.97;97450.63;5052426;28;20524;-27
2021/03/23 09:13:45;;;;;;;26.90;5.28;;;;;;;25.17;29.18;97459.34;5054087;28;20024;-27
2021/03/23 09:16:11;;;;;;;26.23;6.22;;;;;;;25.18;29.08;97457.59;5054777;28;20428;-27
2021/03/23 09:18:37;;;;;;;18.00;5.07;;;;;;;25.20;29.11;97461.00;5051828;28;20031;-26
2021/03/23 09:21:10;;;;;;;20.65;4.70;;;;;;;25.21;29.09;97461.84;5049135;28;20119;-26
2021/03/23 09:23:38;;;;;;;18.17;4.43;;;;;;;25.22;29.28;97461.78;5054155;28;20020;-26
2021/03/23 09:26:22;;;;;;;22.08;4.50;;;;;;;25.21;29.22;97457.47;5053078;28;23025;-28
2021/03/23 09:28:52;;;;;;;28.50;8.43;;;;;;;25.21;27.80;97457.47;5053436;28;20024;-28
2021/03/23 09:31:17;;;;;;;14.30;8.77;;;;;;;25.09;24.98;97458.78;5051936;28;20468;-27
2021/03/23 09:33:49;;;;;;;13.25;8.82;;;;;;;24.92;25.59;97456.84;5053657;28;20047;-29
2021/03/23 09:36:34;;;;;;;15.43;9.95;;;;;;;24.71;24.90;97453.25;5045745;28;20056;-27
2021/03/23 09:39:30;;;;;;;17.55;8.02;;;;;;;24.49;24.92;97449.66;5046526;28;20033;-28
2021/03/23 09:42:20;;;;;;;12.35;6.43;;;;;;;24.40;25.42;97444.75;5038810;22;20197;-26
2021/03/23 09:44:55;;;;;;;9.90;5.25;;;;;;;24.36;25.47;97437.94;5026782;28;20568;-27
2021/03/23 09:47:51;;;;;;;11.65;4.13;;;;;;;24.35;25.93;97444.94;5071950;28;20541;-28
2021/03/23 09:50:42;;;;;;;8.02;3.60;;;;;;;24.37;26.02;97437.88;5073559;28;20031;-27
2021/03/23 09:53:41;;;;;;;10.83;3.43;;;;;;;24.39;25.94;97438.69;5071941;28;20020;-29
2021/03/23 09:56:14;;;;;;;11.25;3.38;;;;;;;24.42;26.44;97434.22;5069618;28;20024;-29
2021/03/23 09:58:40;;;;;;;9.85;3.13;;;;;;;24.45;26.55;97445.47;5071288;28;21595;-27
2021/03/23 10:01:10;;;;;;;6.18;2.90;;;;;;;24.49;26.50;97440.97;5070084;28;20115;-27
2021/03/23 10:03:37;;;;;;;7.25;2.58;;;;;;;24.52;26.56;97433.84;5070441;28;20036;-27
2021/03/23 10:06:27;;;;;;;7.07;2.65;;;;;;;24.57;26.46;97432.81;5056811;28;20043;-27
2021/03/23 10:09:03;;;;;;;7.32;2.47;;;;;;;24.60;26.44;97430.91;5073378;28;20042;-28
2021/03/23 10:11:43;;;;;;;3.75;2.13;;;;;;;24.65;26.77;97430.75;5078987;28;20035;-28
2021/03/23 10:14:12;;;;;;;7.18;2.10;;;;;;;24.69;26.77;97432.34;5078699;28;20515;-28
2021/03/23 10:16:40;;;;;;;5.32;2.40;;;;;;;24.72;26.80;97428.75;5080393;28;20110;-29
2021/03/23 10:19:12;;;;;;;5.65;2.17;;;;;;;24.76;26.73;97430.34;5082068;28;20031;-28
2021/03/23 10:21:43;;;;;;;6.18;2.20;;;;;;;24.78;26.81;97437.22;5063331;28;20648;-27
2021/03/23 10:24:20;;;;;;;5.18;2.15;;;;;;;24.81;26.78;97433.63;5080774;28;20528;-32
2021/03/23 10:26:47;;;;;;;4.28;1.83;;;;;;;24.85;26.89;97431.75;5077284;28;20032;-26
2021/03/23 10:29:24;;;;;;;6.10;1.90;;;;;;;24.88;26.92;97434.28;5083469;28;20057;-28
2021/03/23 10:31:52;;;;;;;3.72;1.85;;;;;;;24.90;26.81;97432.47;5075700;28;20092;-27
2021/03/23 10:34:22;;;;;;;4.45;2.03;;;;;;;24.91;26.78;97431.53;5039844;28;20028;-31
2021/03/23 10:36:50;;;;;;;3.53;1.60;;;;;;;24.93;26.94;97429.69;5078740;28;20032;-26
2021/03/23 10:39:47;;;;;;;2.40;1.38;;;;;;;24.95;27.02;97425.28;5076473;28;20032;-26
2021/03/23 10:42:20;;;;;;;4.72;1.65;;;;;;;24.96;26.98;97421.72;5075131;28;20035;-27
2021/03/23 10:44:46;;;;;;;5.53;1.75;;;;;;;24.98;27.16;97425.13;5074781;28;20100;-30
2021/03/23 10:47:16;;;;;;;4.40;1.60;;;;;;;25.00;27.21;97425.94;5084004;28;20020;-27
2021/03/23 10:49:42;;;;;;;3.20;1.80;;;;;;;25.01;27.20;97424.16;5076552;28;20081;-28
2021/03/23 10:52:19;;;;;;;3.90;1.60;;;;;;;25.02;27.21;97423.25;5077769;28;20024;-30
2021/03/23 10:54:44;;;;;;;3.83;1.50;;;;;;;25.04;27.07;97426.66;5076267;28;20031;-27
2021/03/23 10:57:32;;;;;;;2.80;1.60;;;;;;;25.03;27.21;97424.97;5077865;28;20725;-27
2021/03/23 11:00:17;;;;;;;4.57;2.00;;;;;;;25.05;27.33;97429.22;5078757;28;20032;-27
2021/03/23 11:02:42;;;;;;;4.07;1.70;;;;;;;25.07;27.41;97426.53;5079641;28;20085;-27
2021/03/23 11:05:15;;;;;;;2.83;1.50;;;;;;;25.08;27.18;97428.25;5079209;28;20016;-29
2021/03/23 11:07:50;;;;;;;2.65;1.50;;;;;;;25.10;27.38;97428.19;5078536;28;20025;-26
2021/03/23 11:10:23;;;;;;;2.42;1.33;;;;;;;25.10;27.41;97423.81;5078174;28;20047;-28
2021/03/23 11:12:48;;;;;;;3.63;1.33;;;;;;;25.10;27.58;97421.19;5079479;28;20027;-27
2021/03/23 11:15:14;;;;;;;3.65;1.67;;;;;;;25.11;27.35;97425.50;5082803;28;20020;-27
2021/03/23 11:17:46;;;;;;;1.90;1.10;;;;;;;25.11;27.51;97416.78;5077066;28;20026;-27
2021/03/23 11:20:19;;;;;;;2.90;1.48;;;;;;;25.12;27.50;97418.47;5068029;28;20036;-27
2021/03/23 11:22:45;;;;;;;4.63;1.30;;;;;;;25.13;27.67;97412.34;5061578;28;20420;-27
2021/03/23 11:25:12;;;;;;;4.93;1.40;;;;;;;25.13;27.69;97412.34;5065276;28;20024;-27
2021/03/23 11:27:40;;;;;;;3.38;1.55;;;;;;;25.14;27.43;97414.03;5036693;28;20032;-26
2021/03/23 11:30:06;;;;;;;3.08;1.45;;;;;;;25.11;27.45;97409.78;5074045;28;20032;-27
2021/03/23 11:32:31;;;;;;;4.40;1.55;;;;;;;25.15;27.49;97420.97;5072181;28;20551;-26
2021/03/23 11:34:56;;;;;;;3.17;1.35;;;;;;;25.15;27.67;97415.72;5075467;28;20487;-28
2021/03/23 11:37:22;;;;;;;3.55;1.25;;;;;;;25.15;27.63;97415.72;5072980;28;20024;-26
2021/03/23 11:39:48;;;;;;;2.30;1.33;;;;;;;25.17;27.50;97416.53;5076327;28;20020;-28
2021/03/23 11:42:16;;;;;;;1.65;1.20;;;;;;;25.16;27.75;97413.06;5073431;28;20141;-27
2021/03/23 11:44:44;;;;;;;2.08;1.38;;;;;;;25.17;27.71;97419.16;5021647;28;20124;-27
2021/03/23 11:47:24;;;;;;;3.97;1.23;;;;;;;25.18;27.74;97418.25;5058838;28;20056;-28
2021/03/23 11:49:56;;;;;;;2.05;0.95;;;;;;;25.20;27.83;97413.78;5043864;28;20085;-27
2021/03/23 11:52:22;;;;;;;1.77;1.23;;;;;;;25.19;27.91;97409.44;5075547;28;20508;-28